createdAt,value
2022-11-03T00:02:03.223Z,3.85
2022-11-03T00:04:30.035Z,5.85
2022-11-03T00:06:57.076Z,6.15
2022-11-03T00:09:27.276Z,2.88
2022-11-03T00:11:54.410Z,6.45
2022-11-03T00:14:21.151Z,9.27
2022-11-03T00:16:48.286Z,5.55
2022-11-03T00:19:17.354Z,5.80
2022-11-03T00:21:45.286Z,9.18
2022-11-03T00:24:13.268Z,4.93
2022-11-03T00:26:40.224Z,3.10
2022-11-03T00:29:10.752Z,9.15
2022-11-03T00:31:40.615Z,3.67
2022-11-03T00:34:07.843Z,7.82
2022-11-03T00:36:40.857Z,7.55
2022-11-03T00:39:08.411Z,5.75
2022-11-03T00:41:35.619Z,3.80
2022-11-03T00:44:02.556Z,9.18
2022-11-03T00:46:30.637Z,4.72
2022-11-03T00:48:57.422Z,5.50
2022-11-03T00:51:27.713Z,6.32
2022-11-03T00:53:57.783Z,7.85
2022-11-03T00:56:31.253Z,4.45
2022-11-03T00:59:00.495Z,5.78
2022-11-03T01:01:42.195Z,9.88
2022-11-03T01:04:32.098Z,5.57
2022-11-03T01:07:00.774Z,7.75
2022-11-03T01:09:40.631Z,2.97
2022-11-03T01:12:19.243Z,7.13
2022-11-03T01:14:52.350Z,5.95
2022-11-03T01:17:28.340Z,6.75
2022-11-03T01:19:55.933Z,4.85
2022-11-03T01:22:24.418Z,7.45
2022-11-03T01:24:53.871Z,4.15
2022-11-03T01:27:23.194Z,10.80
2022-11-03T01:29:49.932Z,4.88
2022-11-03T01:32:16.679Z,10.85
2022-11-03T01:34:43.423Z,5.63
2022-11-03T01:37:10.191Z,7.65
2022-11-03T01:39:36.943Z,6.20
2022-11-03T01:42:03.862Z,3.70
2022-11-03T01:44:35.577Z,8.32
2022-11-03T01:47:24.660Z,5.13
2022-11-03T01:50:10.127Z,6.03
2022-11-03T01:52:58.939Z,4.72
2022-11-03T01:55:39.295Z,2.88
2022-11-03T01:58:16.604Z,3.03
2022-11-03T02:00:46.272Z,6.57
2022-11-03T02:03:14.141Z,3.85
2022-11-03T02:05:43.915Z,3.15
2022-11-03T02:08:23.186Z,5.07
2022-11-03T02:10:51.893Z,5.25
2022-11-03T02:13:22.863Z,3.65
2022-11-03T02:15:53.894Z,6.53
2022-11-03T02:18:26.691Z,2.53
2022-11-03T02:21:27.475Z,4.80
2022-11-03T02:24:12.647Z,5.43
2022-11-03T02:26:41.555Z,3.67
2022-11-03T02:29:08.251Z,5.05
2022-11-03T02:31:43.776Z,5.55
2022-11-03T02:34:21.304Z,4.55
2022-11-03T02:36:55.168Z,8.25
2022-11-03T02:39:30.515Z,3.47
2022-11-03T02:41:59.162Z,4.85
2022-11-03T02:44:27.163Z,6.13
2022-11-03T02:47:01.507Z,12.38
2022-11-03T02:49:28.407Z,3.28
2022-11-03T02:52:02.539Z,5.45
2022-11-03T02:54:36.461Z,4.72
2022-11-03T02:57:10.283Z,4.50
2022-11-03T02:59:46.887Z,4.07
2022-11-03T03:02:22.948Z,3.20
2022-11-03T03:04:56.600Z,6.40
2022-11-03T03:07:33.698Z,6.40
2022-11-03T03:10:10.737Z,11.10
2022-11-03T03:12:43.517Z,5.22
2022-11-03T03:15:10.459Z,3.63
2022-11-03T03:18:21.839Z,5.13
2022-11-03T03:21:01.947Z,4.15
2022-11-03T03:23:35.828Z,3.70
2022-11-03T03:26:11.263Z,5.78
2022-11-03T03:28:44.688Z,2.80
2022-11-03T03:31:15.080Z,3.47
2022-11-03T03:33:47.593Z,4.03
2022-11-03T03:36:18.080Z,2.95
2022-11-03T03:38:52.495Z,4.07
2022-11-03T03:41:22.916Z,5.50
2022-11-03T03:43:53.740Z,24.27
2022-11-03T03:46:23.456Z,5.20
2022-11-03T03:48:50.154Z,4.60
2022-11-03T03:51:22.471Z,5.15
2022-11-03T03:53:53.613Z,8.80
2022-11-03T03:56:57.853Z,3.92
2022-11-03T03:59:24.668Z,2.70
2022-11-03T04:01:51.438Z,3.33
2022-11-03T04:04:18.260Z,3.35
2022-11-03T04:06:46.322Z,2.20
2022-11-03T04:09:13.479Z,3.20
2022-11-03T04:11:58.701Z,2.78
2022-11-03T04:14:43.985Z,2.55
2022-11-03T04:17:39.651Z,3.88
2022-11-03T04:20:32.131Z,3.08
2022-11-03T04:22:58.922Z,1.83
2022-11-03T04:25:25.680Z,2.92
2022-11-03T04:27:52.399Z,3.17
2022-11-03T04:30:21.212Z,5.22
2022-11-03T04:32:50.102Z,2.30
2022-11-03T04:35:25.397Z,1.85
2022-11-03T04:37:59.110Z,5.40
2022-11-03T04:40:25.979Z,3.08
2022-11-03T04:42:53.093Z,2.30
2022-11-03T04:45:31.272Z,2.40
2022-11-03T04:48:02.148Z,3.70
2022-11-03T04:50:28.968Z,4.30
2022-11-03T04:52:59.005Z,4.00
2022-11-03T04:55:26.988Z,3.33
2022-11-03T04:58:11.256Z,4.28
2022-11-03T05:00:37.981Z,3.35
2022-11-03T05:03:04.863Z,11.60
2022-11-03T05:05:31.590Z,2.72
2022-11-03T05:07:59.206Z,2.05
2022-11-03T05:10:28.737Z,4.47
2022-11-03T05:12:56.671Z,3.15
2022-11-03T05:15:37.272Z,3.95
2022-11-03T05:18:30.250Z,3.95
2022-11-03T05:21:00.341Z,2.38
2022-11-03T05:23:30.556Z,4.93
2022-11-03T05:25:59.518Z,3.22
2022-11-03T05:28:48.127Z,1.58
2022-11-03T05:31:33.649Z,4.35
2022-11-03T05:34:33.302Z,3.47
2022-11-03T05:37:11.404Z,3.42
2022-11-03T05:39:43.962Z,3.42
2022-11-03T05:42:42.531Z,14.30
2022-11-03T05:45:31.635Z,19.92
2022-11-03T05:47:58.895Z,2.42
2022-11-03T05:50:29.147Z,3.33
2022-11-03T05:53:14.163Z,2.38
2022-11-03T05:55:41.172Z,2.55
2022-11-03T05:58:40.310Z,2.60
2022-11-03T06:01:33.018Z,2.75
2022-11-03T06:04:34.393Z,5.65
2022-11-03T06:07:21.005Z,5.93
2022-11-03T06:09:47.728Z,2.80
2022-11-03T06:12:19.770Z,2.15
2022-11-03T06:14:46.759Z,1.50
2022-11-03T06:17:25.560Z,1.80
2022-11-03T06:19:59.463Z,1.90
2022-11-03T06:22:38.438Z,2.35
2022-11-03T06:25:36.735Z,7.97
2022-11-03T06:28:24.969Z,2.42
2022-11-03T06:30:52.287Z,2.30
2022-11-03T06:33:48.048Z,4.57
2022-11-03T06:36:22.872Z,4.00
2022-11-03T06:39:27.563Z,39.78
2022-11-03T06:41:54.300Z,10.27
2022-11-03T06:44:25.140Z,3.35
2022-11-03T06:46:56.262Z,4.20
2022-11-03T06:49:36.131Z,2.95
2022-11-03T06:52:20.967Z,2.45
2022-11-03T06:54:49.836Z,3.97
2022-11-03T06:57:18.877Z,2.28
2022-11-03T06:59:46.148Z,5.28
2022-11-03T07:02:50.464Z,2.47
2022-11-03T07:05:30.773Z,2.47
2022-11-03T07:08:01.111Z,3.08
2022-11-03T07:10:31.528Z,8.38
2022-11-03T07:13:07.427Z,2.33
2022-11-03T07:15:40.169Z,3.20
2022-11-03T07:18:35.716Z,2.33
2022-11-03T07:21:36.195Z,3.17
2022-11-03T07:24:20.772Z,1.88
2022-11-03T07:26:47.827Z,3.00
2022-11-03T07:29:21.759Z,1.98
2022-11-03T07:31:49.904Z,3.13
2022-11-03T07:34:23.095Z,3.78
2022-11-03T07:36:55.329Z,3.88
2022-11-03T07:39:22.571Z,3.05
2022-11-03T07:41:50.431Z,5.30
2022-11-03T07:44:23.599Z,2.45
2022-11-03T07:46:50.996Z,4.07
2022-11-03T07:49:27.790Z,6.60
2022-11-03T07:51:56.737Z,3.38
2022-11-03T07:54:30.765Z,4.07
2022-11-03T07:57:05.393Z,6.03
2022-11-03T07:59:44.755Z,3.08
2022-11-03T08:02:30.905Z,7.30
2022-11-03T08:04:58.840Z,3.33
2022-11-03T08:07:27.985Z,3.42
2022-11-03T08:09:55.227Z,4.22
2022-11-03T08:12:22.366Z,4.40
2022-11-03T08:14:49.090Z,5.60
2022-11-03T08:17:15.989Z,4.70
2022-11-03T08:19:43.043Z,7.47
2022-11-03T08:22:09.841Z,4.93
2022-11-03T08:24:36.660Z,5.32
2022-11-03T08:27:04.623Z,3.92
2022-11-03T08:29:31.530Z,6.90
2022-11-03T08:31:58.285Z,3.88
2022-11-03T08:34:25.007Z,9.10
2022-11-03T08:36:51.788Z,5.97
2022-11-03T08:39:18.510Z,5.65
2022-11-03T08:41:45.202Z,8.20
2022-11-03T08:44:11.924Z,4.05
2022-11-03T08:46:38.698Z,4.60
2022-11-03T08:49:05.402Z,7.13
2022-11-03T08:51:32.612Z,7.68
2022-11-03T08:53:59.341Z,6.90
2022-11-03T08:56:26.069Z,7.05
2022-11-03T08:58:52.852Z,8.07
2022-11-03T09:01:19.698Z,4.78
2022-11-03T09:03:46.515Z,6.75
2022-11-03T09:06:13.263Z,6.15
2022-11-03T09:11:26.760Z,9.43
2022-11-03T09:13:53.638Z,7.55
2022-11-03T09:16:20.369Z,6.55
2022-11-03T09:18:47.222Z,6.63
2022-11-03T09:21:15.089Z,5.82
2022-11-03T09:23:42.138Z,8.13
2022-11-03T09:26:08.876Z,6.85
2022-11-03T09:28:35.598Z,5.35
2022-11-03T09:31:02.399Z,7.07
2022-11-03T09:33:29.181Z,10.10
2022-11-03T09:35:55.972Z,6.63
2022-11-03T09:38:22.674Z,8.73
2022-11-03T09:40:49.608Z,4.68
2022-11-03T09:43:16.384Z,7.07
2022-11-03T09:45:43.142Z,5.68
2022-11-03T09:48:13.266Z,5.78
2022-11-03T09:50:40.670Z,11.32
2022-11-03T09:53:12.901Z,5.10
2022-11-03T09:55:40.955Z,5.80
2022-11-03T09:58:15.322Z,5.57
2022-11-03T10:00:42.334Z,13.30
2022-11-03T10:03:13.552Z,7.78
2022-11-03T10:05:42.855Z,7.72
2022-11-03T10:08:30.802Z,8.32
2022-11-03T10:10:58.330Z,5.68
2022-11-03T10:13:36.305Z,6.03
2022-11-03T10:16:05.767Z,5.53
2022-11-03T10:18:34.435Z,6.22
2022-11-03T10:21:26.912Z,6.88
2022-11-03T10:23:53.690Z,6.75
2022-11-03T10:26:20.973Z,6.72
2022-11-03T10:29:09.918Z,7.28
2022-11-03T10:31:41.781Z,6.65
2022-11-03T10:34:39.493Z,5.57
2022-11-03T10:37:21.087Z,7.70
2022-11-03T10:39:50.097Z,7.10
2022-11-03T10:42:21.266Z,10.15
2022-11-03T10:44:52.283Z,9.25
2022-11-03T10:47:33.841Z,7.55
2022-11-03T10:50:17.703Z,6.38
2022-11-03T10:52:44.541Z,10.93
2022-11-03T10:55:11.381Z,10.30
2022-11-03T10:57:38.494Z,7.85
2022-11-03T11:00:09.507Z,7.07
2022-11-03T11:02:36.853Z,7.95
2022-11-03T11:05:19.553Z,7.22
2022-11-03T11:07:46.744Z,7.32
2022-11-03T11:10:26.955Z,8.88
2022-11-03T11:13:18.895Z,8.40
2022-11-03T11:15:48.599Z,9.48
2022-11-03T11:18:30.354Z,7.50
2022-11-03T11:20:58.378Z,8.90
2022-11-03T11:23:28.012Z,7.13
2022-11-03T11:26:09.596Z,10.10
2022-11-03T11:28:45.479Z,8.27
2022-11-03T11:31:28.383Z,11.02
2022-11-03T11:34:10.578Z,8.82
2022-11-03T11:36:39.724Z,8.10
2022-11-03T11:39:24.857Z,8.55
2022-11-03T11:42:15.088Z,8.77
2022-11-03T11:44:48.070Z,12.32
2022-11-03T11:47:43.923Z,12.20
2022-11-03T11:50:12.931Z,10.90
2022-11-03T11:53:11.955Z,10.15
2022-11-03T11:55:54.085Z,10.95
2022-11-03T11:58:25.740Z,13.18
2022-11-03T12:01:00.182Z,10.18
2022-11-03T12:03:32.694Z,11.40
2022-11-03T12:05:59.537Z,13.63
2022-11-03T12:08:30.004Z,12.23
2022-11-03T12:11:00.183Z,9.82
2022-11-03T12:13:45.002Z,10.23
2022-11-03T12:16:31.025Z,8.70
2022-11-03T12:19:18.359Z,9.05
2022-11-03T12:21:49.583Z,10.52
2022-11-03T12:24:47.607Z,14.25
2022-11-03T12:27:26.612Z,17.90
2022-11-03T12:29:59.547Z,8.45
2022-11-03T12:35:08.525Z,10.90
2022-11-03T12:37:35.845Z,9.00
2022-11-03T12:40:02.720Z,11.38
2022-11-03T12:42:29.554Z,14.15
2022-11-03T12:44:56.326Z,12.55
2022-11-03T12:47:23.480Z,16.10
2022-11-03T12:49:50.389Z,12.30
2022-11-03T12:52:17.167Z,11.23
2022-11-03T12:54:44.212Z,11.23
2022-11-03T12:57:10.943Z,13.38
2022-11-03T12:59:37.770Z,10.32
2022-11-03T13:02:04.752Z,11.48
2022-11-03T13:04:31.591Z,9.85
2022-11-03T13:06:58.352Z,10.27
2022-11-03T13:09:25.148Z,8.55
2022-11-03T13:12:10.748Z,9.50
2022-11-03T13:14:37.478Z,9.63
2022-11-03T13:17:04.625Z,11.77
2022-11-03T13:19:31.439Z,12.27
2022-11-03T13:21:58.218Z,9.25
2022-11-03T13:24:25.052Z,9.90
2022-11-03T13:26:51.820Z,10.50
2022-11-03T13:29:18.520Z,10.73
2022-11-03T13:31:45.244Z,10.25
2022-11-03T13:34:12.191Z,10.52
2022-11-03T13:36:38.980Z,9.07
2022-11-03T13:39:05.696Z,8.63
2022-11-03T13:41:32.391Z,9.10
2022-11-03T13:43:59.112Z,14.52
2022-11-03T13:46:25.868Z,17.20
2022-11-03T13:49:43.879Z,10.93
2022-11-03T13:51:39.278Z,13.45
2022-11-03T13:59:39.690Z,15.88
2022-11-03T14:04:54.087Z,14.68
2022-11-03T14:07:20.927Z,16.08
2022-11-03T14:09:47.779Z,13.00
2022-11-03T14:12:32.653Z,15.82
2022-11-03T14:15:11.023Z,12.73
2022-11-03T14:17:39.717Z,14.85
2022-11-03T14:20:12.091Z,13.07
2022-11-03T14:22:40.483Z,11.70
2022-11-03T14:25:08.151Z,9.98
2022-11-03T14:27:34.969Z,12.85
2022-11-03T14:30:01.940Z,12.63
2022-11-03T14:32:28.716Z,14.15
2022-11-03T14:34:55.551Z,13.35
2022-11-03T14:37:25.365Z,19.52
2022-11-03T14:39:52.279Z,18.20
2022-11-03T14:42:19.018Z,18.30
2022-11-03T14:44:46.859Z,13.15
2022-11-03T14:47:21.821Z,15.02
2022-11-03T14:49:49.366Z,15.98
2022-11-03T14:52:17.603Z,21.08
2022-11-03T14:54:44.728Z,12.35
2022-11-03T14:57:11.648Z,12.00
2022-11-03T14:59:38.487Z,14.75
2022-11-03T15:02:06.354Z,11.63
2022-11-03T15:04:33.561Z,16.17
2022-11-03T15:07:00.540Z,14.60
2022-11-03T15:09:27.305Z,17.55
2022-11-03T15:11:54.145Z,14.57
2022-11-03T15:14:20.959Z,12.73
2022-11-03T15:16:48.258Z,15.55
2022-11-03T15:19:15.043Z,15.98
2022-11-03T15:21:41.860Z,17.52
2022-11-03T15:26:55.530Z,21.95
2022-11-03T15:29:24.230Z,14.50
2022-11-03T15:31:52.074Z,14.10
2022-11-03T15:34:18.910Z,14.95
2022-11-03T15:36:45.785Z,14.30
2022-11-03T15:39:13.600Z,14.00
2022-11-03T15:41:40.748Z,9.25
2022-11-03T15:44:07.496Z,10.68
2022-11-03T15:46:35.812Z,16.45
2022-11-03T15:49:03.031Z,12.02
2022-11-03T15:51:29.783Z,11.82
2022-11-03T15:53:58.909Z,15.65
2022-11-03T15:56:29.884Z,14.23
2022-11-03T15:58:56.780Z,13.98
2022-11-03T16:01:24.182Z,15.02
2022-11-03T16:03:51.248Z,14.55
2022-11-03T16:06:18.097Z,13.05
2022-11-03T16:08:45.223Z,17.35
2022-11-03T16:11:12.011Z,12.13
2022-11-03T16:13:39.543Z,17.10
2022-11-03T16:16:07.173Z,15.55
2022-11-03T16:18:34.781Z,14.35
2022-11-03T16:21:02.658Z,13.63
2022-11-03T16:23:29.399Z,19.58
2022-11-03T16:25:56.215Z,16.88
2022-11-03T16:28:23.405Z,13.50
2022-11-03T16:30:54.300Z,22.67
2022-11-03T16:33:21.938Z,16.27
2022-11-03T16:35:49.413Z,15.73
2022-11-03T16:38:16.424Z,14.27
2022-11-03T16:40:43.802Z,17.08
2022-11-03T16:43:12.554Z,17.67
2022-11-03T16:45:39.416Z,20.17
2022-11-03T16:48:07.385Z,13.77
2022-11-03T16:50:34.806Z,42.83
2022-11-03T16:53:01.676Z,30.85
2022-11-03T16:55:28.474Z,14.63
2022-11-03T16:57:55.290Z,14.57
2022-11-03T17:00:22.624Z,16.02
2022-11-03T17:02:49.342Z,18.20
2022-11-03T17:05:18.829Z,13.57
2022-11-03T17:07:51.811Z,13.85
2022-11-03T17:10:20.325Z,13.63
2022-11-03T17:12:47.067Z,11.32
2022-11-03T17:15:14.112Z,14.30
2022-11-03T17:17:41.566Z,13.93
2022-11-03T17:20:10.730Z,19.92
2022-11-03T17:22:37.839Z,20.27
2022-11-03T17:25:06.889Z,15.02
2022-11-03T17:27:46.488Z,19.33
2022-11-03T17:30:21.731Z,21.05
2022-11-03T17:32:51.036Z,20.67
2022-11-03T17:35:24.701Z,24.17
2022-11-03T17:37:52.739Z,23.75
2022-11-03T17:40:22.969Z,20.08
2022-11-03T17:42:50.771Z,20.70
2022-11-03T17:45:21.377Z,28.55
2022-11-03T17:47:49.721Z,19.42
2022-11-03T17:50:20.300Z,16.50
2022-11-03T17:52:48.872Z,18.27
2022-11-03T17:55:26.813Z,14.70
2022-11-03T17:57:55.330Z,23.30
2022-11-03T18:00:22.846Z,31.95
2022-11-03T18:02:53.134Z,26.63
2022-11-03T18:05:30.387Z,25.25
2022-11-03T18:08:05.824Z,21.70
2022-11-03T18:10:34.918Z,19.42
2022-11-03T18:13:30.031Z,23.05
2022-11-03T18:16:10.888Z,22.52
2022-11-03T18:18:43.655Z,21.17
2022-11-03T18:21:19.327Z,17.60
2022-11-03T18:23:48.894Z,19.30
2022-11-03T18:26:18.972Z,16.88
2022-11-03T18:28:45.948Z,18.48
2022-11-03T18:31:36.658Z,21.48
2022-11-03T18:34:07.031Z,23.08
2022-11-03T18:36:34.385Z,22.23
2022-11-03T18:39:02.264Z,18.27
2022-11-03T18:41:42.040Z,17.15
2022-11-03T18:44:30.971Z,19.92
2022-11-03T18:46:58.550Z,21.45
2022-11-03T18:49:27.512Z,21.02
2022-11-03T18:52:02.944Z,23.90
2022-11-03T18:54:32.224Z,22.27
2022-11-03T18:57:00.254Z,17.33
2022-11-03T18:59:37.630Z,16.67
2022-11-03T19:02:18.368Z,14.68
2022-11-03T19:04:45.971Z,12.63
2022-11-03T19:07:16.075Z,16.88
2022-11-03T19:09:44.176Z,16.95
2022-11-03T19:12:14.562Z,11.95
2022-11-03T19:14:45.166Z,12.98
2022-11-03T19:17:22.927Z,13.07
2022-11-03T19:19:52.061Z,12.60
2022-11-03T19:22:22.348Z,14.27
2022-11-03T19:24:49.417Z,15.73
2022-11-03T19:27:28.950Z,13.82
2022-11-03T19:29:57.698Z,11.88
2022-11-03T19:32:32.767Z,16.23
2022-11-03T19:35:06.524Z,15.50
2022-11-03T19:37:35.765Z,15.98
2022-11-03T19:40:06.133Z,14.77
2022-11-03T19:42:36.917Z,12.65
2022-11-03T19:45:14.336Z,15.70
2022-11-03T19:50:33.409Z,16.17
2022-11-03T19:53:03.769Z,12.75
2022-11-03T19:55:34.963Z,16.40
2022-11-03T19:58:24.995Z,12.65
2022-11-03T20:00:52.917Z,15.50
2022-11-03T20:03:20.301Z,17.02
2022-11-03T20:05:49.520Z,17.60
2022-11-03T20:08:21.757Z,13.75
2022-11-03T20:10:49.332Z,12.43
2022-11-03T20:13:19.968Z,12.40
2022-11-03T20:15:47.303Z,12.82
2022-11-03T20:18:15.358Z,11.73
2022-11-03T20:20:44.288Z,14.05
2022-11-03T20:23:28.851Z,15.80
2022-11-03T20:25:55.900Z,12.68
2022-11-03T20:28:27.628Z,13.20
2022-11-03T20:30:56.114Z,13.55
2022-11-03T20:33:25.016Z,17.00
2022-11-03T20:35:53.531Z,21.25
2022-11-03T20:38:21.154Z,18.67
2022-11-03T20:40:51.369Z,18.88
2022-11-03T20:43:35.299Z,12.23
2022-11-03T20:46:04.839Z,15.35
2022-11-03T20:48:31.556Z,14.27
2022-11-03T20:50:58.324Z,17.52
2022-11-03T20:53:25.861Z,15.60
2022-11-03T20:55:53.488Z,16.75
2022-11-03T20:58:20.364Z,16.20
2022-11-03T21:00:48.681Z,14.10
2022-11-03T21:03:57.628Z,20.15
2022-11-03T21:06:18.349Z,16.98
2022-11-03T21:08:47.366Z,15.40
2022-11-03T21:11:29.413Z,11.30
2022-11-03T21:14:33.100Z,19.63
2022-11-03T21:20:07.988Z,8.63
2022-11-03T21:22:57.160Z,8.45
2022-11-03T21:25:24.902Z,7.30
2022-11-03T21:27:53.915Z,4.13
2022-11-03T21:30:21.929Z,2.42
2022-11-03T21:32:48.779Z,6.07
2022-11-03T21:35:19.552Z,4.53
2022-11-03T21:37:47.234Z,13.25
2022-11-03T21:40:15.300Z,13.75
2022-11-03T21:43:00.504Z,9.98
2022-11-03T21:45:27.295Z,11.13
2022-11-03T21:48:14.298Z,6.65
2022-11-03T21:50:42.405Z,4.22
2022-11-03T21:53:09.438Z,2.92
2022-11-03T21:55:36.767Z,5.60
2022-11-03T21:58:04.603Z,2.60
2022-11-03T22:00:32.464Z,3.10
2022-11-03T22:03:00.381Z,1.73
2022-11-03T22:05:27.653Z,1.10
2022-11-03T22:07:54.392Z,1.27
2022-11-03T22:10:21.236Z,3.33
2022-11-03T22:12:48.201Z,1.55
2022-11-03T22:15:33.400Z,0.80
2022-11-03T22:18:04.127Z,2.17
2022-11-03T22:20:49.608Z,3.10
2022-11-03T22:23:34.903Z,0.80
2022-11-03T22:26:20.620Z,1.23
2022-11-03T22:29:07.326Z,1.65
2022-11-03T22:31:43.028Z,0.50
2022-11-03T22:34:28.731Z,1.65
2022-11-03T22:36:55.735Z,1.65
2022-11-03T22:39:41.240Z,0.65
2022-11-03T22:42:30.370Z,0.40
2022-11-03T22:45:15.734Z,1.95
2022-11-03T22:47:42.496Z,0.98
2022-11-03T22:50:09.780Z,0.70
2022-11-03T22:52:36.608Z,0.85
2022-11-03T22:55:03.850Z,0.98
2022-11-03T22:57:30.603Z,1.75
2022-11-03T22:59:57.299Z,1.10
2022-11-03T23:02:24.125Z,1.10
2022-11-03T23:04:50.962Z,0.93
2022-11-03T23:07:17.719Z,0.50
2022-11-03T23:09:44.440Z,1.23
2022-11-03T23:12:11.503Z,0.55
2022-11-03T23:14:56.739Z,0.70
2022-11-03T23:17:43.464Z,1.80
2022-11-03T23:20:39.662Z,0.73
2022-11-03T23:23:06.628Z,0.70
2022-11-03T23:25:33.584Z,0.57
2022-11-03T23:28:00.297Z,0.52
2022-11-03T23:30:27.096Z,0.43
2022-11-03T23:32:53.814Z,0.82
2022-11-03T23:35:20.534Z,0.95
2022-11-03T23:37:47.279Z,0.82
2022-11-03T23:40:17.231Z,0.60
2022-11-03T23:42:47.163Z,0.50
2022-11-03T23:45:32.779Z,2.63
2022-11-03T23:48:18.158Z,0.57
2022-11-03T23:50:44.974Z,0.25
2022-11-03T23:53:11.690Z,0.60
2022-11-03T23:55:56.968Z,0.93
2022-11-03T23:58:23.697Z,0.93
